Main page
METAR-TAF:

METAR-TAF

Airports :

Fujairah International Airport

Fujairah, United Arab Emirates

latitude: 25-06N, longitude: 056-20E, elevation: 28 m

Current weather observation

The report was made 20 minutes ago, at 12:00 UTC
Wind 6 kt from the East, varying between Northeast and Southeast
Temperature 38°C
Humidity 33%
Pressure 1001 hPa
Visibility: 8000 m

METAR: OMFJ 211200Z 10006KT 050V130 8000 NSC 38/19 Q1001 A2957

Time: 16:20 (12:20 UTC)

Forecast

The report was made 1 hour and 20 minutes ago, at 11:00 UTC
Forecast valid from 21 at 12 UTC to 22 at 18 UTC
Wind 7 kt from the East
Visibility: 8000 m
Becoming
from 21 at 14 UTC to 21 at 16 UTC
Wind 3 kt from variable directions
Temporary
from 21 at 20 UTC to 22 at 03 UTC
Wind 6 kt from the West/Northwest
Becoming
from 22 at 05 UTC to 22 at 07 UTC
Wind 8 kt from the East

TAF: OMFJ 211100Z 2112/2218 10007KT 8000 NSC BECMG 2114/2116 VRB03KT TEMPO 2120/2203 30006KT BECMG 2205/2207 09008KT

Weather observations and forecasts of more than 4000 airports (METAR and TAF reports).

The available stations are represented by yellow and red dots on the map.

Hover mouse over dot to see the name of the station.

Then click to see weather observations and forecasts.

To change the map : click on the green buttons with a black cross to zoom in, on the green button with a dash to zoom out, or on the green arrows for adjacent maps.


METAR-TAF: